sensor_id;sensor_type;location;lat;lon;timestamp;P1;durP1;ratioP1;P2;durP2;ratioP2
52542;SDS011;38449;52.696;6.186;2023-04-01T00:00:58;5.47;;;3.95;;
52542;SDS011;38449;52.696;6.186;2023-04-01T00:03:26;5.00;;;4.00;;
52542;SDS011;38449;52.696;6.186;2023-04-01T00:05:55;4.22;;;3.53;;
52542;SDS011;38449;52.696;6.186;2023-04-01T00:08:23;5.13;;;4.00;;
52542;SDS011;38449;52.696;6.186;2023-04-01T00:10:56;5.43;;;3.80;;
52542;SDS011;38449;52.696;6.186;2023-04-01T00:13:24;4.47;;;3.55;;
52542;SDS011;38449;52.696;6.186;2023-04-01T00:15:54;5.43;;;3.92;;
52542;SDS011;38449;52.696;6.186;2023-04-01T00:18:21;4.75;;;4.25;;
52542;SDS011;38449;52.696;6.186;2023-04-01T00:20:49;6.28;;;3.90;;
52542;SDS011;38449;52.696;6.186;2023-04-01T00:23:16;5.75;;;4.05;;
52542;SDS011;38449;52.696;6.186;2023-04-01T00:25:43;4.53;;;3.45;;
52542;SDS011;38449;52.696;6.186;2023-04-01T00:28:13;5.32;;;4.10;;
52542;SDS011;38449;52.696;6.186;2023-04-01T00:30:40;4.32;;;3.67;;
52542;SDS011;38449;52.696;6.186;2023-04-01T00:33:06;5.93;;;4.15;;
52542;SDS011;38449;52.696;6.186;2023-04-01T00:35:33;4.30;;;3.90;;
52542;SDS011;38449;52.696;6.186;2023-04-01T00:38:00;4.95;;;3.65;;
52542;SDS011;38449;52.696;6.186;2023-04-01T00:40:43;5.63;;;4.32;;
52542;SDS011;38449;52.696;6.186;2023-04-01T00:43:16;4.65;;;4.10;;
52542;SDS011;38449;52.696;6.186;2023-04-01T00:45:45;4.07;;;3.47;;
52542;SDS011;38449;52.696;6.186;2023-04-01T00:48:14;6.38;;;3.78;;
52542;SDS011;38449;52.696;6.186;2023-04-01T00:50:45;4.82;;;3.95;;
52542;SDS011;38449;52.696;6.186;2023-04-01T00:53:18;4.85;;;4.00;;
52542;SDS011;38449;52.696;6.186;2023-04-01T00:55:51;5.13;;;3.75;;
52542;SDS011;38449;52.696;6.186;2023-04-01T00:58:57;7.38;;;4.18;;
52542;SDS011;38449;52.696;6.186;2023-04-01T01:01:50;5.30;;;4.00;;
52542;SDS011;38449;52.696;6.186;2023-04-01T01:04:21;5.75;;;4.10;;
52542;SDS011;38449;52.696;6.186;2023-04-01T01:07:12;5.47;;;4.38;;
52542;SDS011;38449;52.696;6.186;2023-04-01T01:09:43;6.13;;;3.85;;
52542;SDS011;38449;52.696;6.186;2023-04-01T01:15:47;7.38;;;4.18;;
52542;SDS011;38449;52.696;6.186;2023-04-01T01:26:58;5.35;;;4.22;;
52542;SDS011;38449;52.696;6.186;2023-04-01T01:37:53;6.90;;;4.65;;
52542;SDS011;38449;52.696;6.186;2023-04-01T01:40:22;6.65;;;4.72;;
52542;SDS011;38449;52.696;6.186;2023-04-01T01:43:01;5.45;;;4.22;;
52542;SDS011;38449;52.696;6.186;2023-04-01T01:45:30;6.43;;;3.97;;
52542;SDS011;38449;52.696;6.186;2023-04-01T01:48:06;4.78;;;3.75;;
52542;SDS011;38449;52.696;6.186;2023-04-01T01:50:34;6.15;;;4.32;;
52542;SDS011;38449;52.696;6.186;2023-04-01T01:53:07;7.38;;;4.30;;
52542;SDS011;38449;52.696;6.186;2023-04-01T01:55:36;7.65;;;5.05;;
52542;SDS011;38449;52.696;6.186;2023-04-01T01:58:10;5.90;;;4.32;;
52542;SDS011;38449;52.696;6.186;2023-04-01T02:00:41;5.30;;;4.18;;
52542;SDS011;38449;52.696;6.186;2023-04-01T02:03:19;6.50;;;4.50;;
52542;SDS011;38449;52.696;6.186;2023-04-01T02:05:49;5.30;;;3.95;;
52542;SDS011;38449;52.696;6.186;2023-04-01T02:08:19;6.97;;;4.40;;
52542;SDS011;38449;52.696;6.186;2023-04-01T02:10:55;5.63;;;4.38;;
52542;SDS011;38449;52.696;6.186;2023-04-01T02:13:43;5.32;;;3.90;;
52542;SDS011;38449;52.696;6.186;2023-04-01T02:16:26;5.65;;;4.35;;
52542;SDS011;38449;52.696;6.186;2023-04-01T02:19:01;6.25;;;4.32;;
52542;SDS011;38449;52.696;6.186;2023-04-01T02:21:34;6.32;;;4.68;;
52542;SDS011;38449;52.696;6.186;2023-04-01T02:24:03;6.40;;;4.95;;
52542;SDS011;38449;52.696;6.186;2023-04-01T02:26:33;6.30;;;4.90;;
52542;SDS011;38449;52.696;6.186;2023-04-01T02:29:03;6.00;;;4.50;;
52542;SDS011;38449;52.696;6.186;2023-04-01T02:31:32;6.30;;;4.35;;
52542;SDS011;38449;52.696;6.186;2023-04-01T02:33:59;6.88;;;4.47;;
52542;SDS011;38449;52.696;6.186;2023-04-01T02:36:25;6.25;;;4.43;;
52542;SDS011;38449;52.696;6.186;2023-04-01T02:38:52;6.20;;;4.78;;
52542;SDS011;38449;52.696;6.186;2023-04-01T02:41:20;6.60;;;4.95;;
52542;SDS011;38449;52.696;6.186;2023-04-01T02:43:47;6.43;;;4.95;;
52542;SDS011;38449;52.696;6.186;2023-04-01T02:46:13;7.00;;;4.72;;
52542;SDS011;38449;52.696;6.186;2023-04-01T02:48:40;6.15;;;4.63;;
52542;SDS011;38449;52.696;6.186;2023-04-01T02:51:06;6.90;;;4.75;;
52542;SDS011;38449;52.696;6.186;2023-04-01T02:53:40;6.95;;;4.60;;
52542;SDS011;38449;52.696;6.186;2023-04-01T02:56:06;6.05;;;4.60;;
52542;SDS011;38449;52.696;6.186;2023-04-01T02:58:33;6.55;;;4.22;;
52542;SDS011;38449;52.696;6.186;2023-04-01T03:01:00;5.97;;;4.53;;
52542;SDS011;38449;52.696;6.186;2023-04-01T03:03:26;5.55;;;4.03;;
52542;SDS011;38449;52.696;6.186;2023-04-01T03:05:52;6.07;;;4.13;;
52542;SDS011;38449;52.696;6.186;2023-04-01T03:08:21;6.13;;;4.75;;
52542;SDS011;38449;52.696;6.186;2023-04-01T03:10:48;6.50;;;4.72;;
52542;SDS011;38449;52.696;6.186;2023-04-01T03:13:20;5.95;;;4.57;;
52542;SDS011;38449;52.696;6.186;2023-04-01T03:15:48;6.80;;;4.78;;
52542;SDS011;38449;52.696;6.186;2023-04-01T03:18:14;6.80;;;5.00;;
52542;SDS011;38449;52.696;6.186;2023-04-01T03:20:40;6.30;;;4.82;;
52542;SDS011;38449;52.696;6.186;2023-04-01T03:23:07;7.32;;;5.10;;
52542;SDS011;38449;52.696;6.186;2023-04-01T03:25:33;6.93;;;4.72;;
52542;SDS011;38449;52.696;6.186;2023-04-01T03:28:00;8.05;;;5.07;;
52542;SDS011;38449;52.696;6.186;2023-04-01T03:30:27;8.05;;;5.53;;
52542;SDS011;38449;52.696;6.186;2023-04-01T03:32:53;10.00;;;5.40;;
52542;SDS011;38449;52.696;6.186;2023-04-01T03:35:25;7.55;;;5.63;;
52542;SDS011;38449;52.696;6.186;2023-04-01T03:37:52;8.60;;;5.57;;
52542;SDS011;38449;52.696;6.186;2023-04-01T03:40:21;8.68;;;5.65;;
52542;SDS011;38449;52.696;6.186;2023-04-01T03:42:48;8.25;;;5.38;;
52542;SDS011;38449;52.696;6.186;2023-04-01T03:45:14;8.43;;;5.43;;
52542;SDS011;38449;52.696;6.186;2023-04-01T03:47:41;8.55;;;6.07;;
52542;SDS011;38449;52.696;6.186;2023-04-01T03:50:08;10.10;;;6.18;;
52542;SDS011;38449;52.696;6.186;2023-04-01T03:52:41;12.55;;;7.53;;
52542;SDS011;38449;52.696;6.186;2023-04-01T03:55:08;8.55;;;6.75;;
52542;SDS011;38449;52.696;6.186;2023-04-01T03:57:34;11.38;;;7.13;;
52542;SDS011;38449;52.696;6.186;2023-04-01T04:00:05;9.38;;;6.20;;
52542;SDS011;38449;52.696;6.186;2023-04-01T04:02:31;11.50;;;7.30;;
52542;SDS011;38449;52.696;6.186;2023-04-01T04:04:58;9.70;;;6.72;;
52542;SDS011;38449;52.696;6.186;2023-04-01T04:07:24;11.07;;;6.63;;
52542;SDS011;38449;52.696;6.186;2023-04-01T04:09:50;10.63;;;6.65;;
52542;SDS011;38449;52.696;6.186;2023-04-01T04:12:17;12.27;;;7.38;;
52542;SDS011;38449;52.696;6.186;2023-04-01T04:14:43;10.45;;;6.55;;
52542;SDS011;38449;52.696;6.186;2023-04-01T04:17:10;11.32;;;6.75;;
52542;SDS011;38449;52.696;6.186;2023-04-01T04:22:08;13.02;;;6.72;;
52542;SDS011;38449;52.696;6.186;2023-04-01T04:24:35;10.43;;;6.65;;
52542;SDS011;38449;52.696;6.186;2023-04-01T04:27:04;11.50;;;7.10;;
52542;SDS011;38449;52.696;6.186;2023-04-01T04:29:30;11.68;;;7.32;;
52542;SDS011;38449;52.696;6.186;2023-04-01T04:31:57;10.40;;;6.65;;
52542;SDS011;38449;52.696;6.186;2023-04-01T04:34:23;11.20;;;6.82;;
52542;SDS011;38449;52.696;6.186;2023-04-01T04:36:50;10.38;;;6.53;;
52542;SDS011;38449;52.696;6.186;2023-04-01T04:39:17;11.18;;;7.03;;
52542;SDS011;38449;52.696;6.186;2023-04-01T04:41:43;10.57;;;7.32;;
52542;SDS011;38449;52.696;6.186;2023-04-01T04:44:09;14.10;;;7.20;;
52542;SDS011;38449;52.696;6.186;2023-04-01T04:46:36;12.43;;;8.25;;
52542;SDS011;38449;52.696;6.186;2023-04-01T04:49:05;11.60;;;7.45;;
52542;SDS011;38449;52.696;6.186;2023-04-01T04:51:32;12.20;;;7.43;;
52542;SDS011;38449;52.696;6.186;2023-04-01T04:54:02;12.20;;;7.40;;
52542;SDS011;38449;52.696;6.186;2023-04-01T04:56:28;11.05;;;6.53;;
52542;SDS011;38449;52.696;6.186;2023-04-01T04:58:56;11.57;;;7.13;;
52542;SDS011;38449;52.696;6.186;2023-04-01T05:01:23;15.45;;;8.63;;
52542;SDS011;38449;52.696;6.186;2023-04-01T05:03:50;10.45;;;6.15;;
52542;SDS011;38449;52.696;6.186;2023-04-01T05:06:17;11.50;;;7.07;;
52542;SDS011;38449;52.696;6.186;2023-04-01T05:08:45;9.65;;;6.40;;
52542;SDS011;38449;52.696;6.186;2023-04-01T05:11:13;10.80;;;7.05;;
52542;SDS011;38449;52.696;6.186;2023-04-01T05:13:51;10.05;;;6.63;;
52542;SDS011;38449;52.696;6.186;2023-04-01T05:16:19;10.57;;;6.85;;
52542;SDS011;38449;52.696;6.186;2023-04-01T05:18:46;10.93;;;6.93;;
52542;SDS011;38449;52.696;6.186;2023-04-01T05:21:17;10.38;;;6.95;;
52542;SDS011;38449;52.696;6.186;2023-04-01T05:23:44;11.60;;;6.85;;
52542;SDS011;38449;52.696;6.186;2023-04-01T05:26:12;10.60;;;6.85;;
52542;SDS011;38449;52.696;6.186;2023-04-01T05:28:39;9.57;;;6.22;;
52542;SDS011;38449;52.696;6.186;2023-04-01T05:31:07;9.93;;;6.07;;
52542;SDS011;38449;52.696;6.186;2023-04-01T05:33:40;7.55;;;5.05;;
52542;SDS011;38449;52.696;6.186;2023-04-01T05:36:10;6.43;;;4.35;;
52542;SDS011;38449;52.696;6.186;2023-04-01T05:38:38;6.60;;;4.18;;
52542;SDS011;38449;52.696;6.186;2023-04-01T05:41:05;5.80;;;4.03;;
52542;SDS011;38449;52.696;6.186;2023-04-01T05:43:35;5.32;;;3.65;;
52542;SDS011;38449;52.696;6.186;2023-04-01T05:46:02;5.68;;;3.95;;
52542;SDS011;38449;52.696;6.186;2023-04-01T05:48:29;4.75;;;3.40;;
52542;SDS011;38449;52.696;6.186;2023-04-01T05:50:55;4.95;;;3.13;;
52542;SDS011;38449;52.696;6.186;2023-04-01T05:53:21;4.60;;;2.97;;
52542;SDS011;38449;52.696;6.186;2023-04-01T05:55:55;5.07;;;3.40;;
52542;SDS011;38449;52.696;6.186;2023-04-01T05:58:21;4.50;;;2.88;;
52542;SDS011;38449;52.696;6.186;2023-04-01T06:00:52;4.80;;;3.22;;
52542;SDS011;38449;52.696;6.186;2023-04-01T06:03:29;4.05;;;2.90;;
52542;SDS011;38449;52.696;6.186;2023-04-01T06:05:55;4.90;;;3.65;;
52542;SDS011;38449;52.696;6.186;2023-04-01T06:08:22;5.05;;;3.65;;
52542;SDS011;38449;52.696;6.186;2023-04-01T06:11:05;5.35;;;3.67;;
52542;SDS011;38449;52.696;6.186;2023-04-01T06:19:13;6.95;;;4.28;;
52542;SDS011;38449;52.696;6.186;2023-04-01T06:21:47;8.40;;;4.95;;
52542;SDS011;38449;52.696;6.186;2023-04-01T06:32:46;9.00;;;4.90;;
52542;SDS011;38449;52.696;6.186;2023-04-01T06:35:38;7.45;;;4.55;;
52542;SDS011;38449;52.696;6.186;2023-04-01T06:38:57;8.18;;;5.38;;
52542;SDS011;38449;52.696;6.186;2023-04-01T06:50:01;8.15;;;4.18;;
52542;SDS011;38449;52.696;6.186;2023-04-01T06:52:46;8.05;;;4.35;;
52542;SDS011;38449;52.696;6.186;2023-04-01T06:58:04;6.32;;;4.00;;
52542;SDS011;38449;52.696;6.186;2023-04-01T07:00:40;6.40;;;3.88;;
52542;SDS011;38449;52.696;6.186;2023-04-01T07:05:48;6.72;;;3.90;;
52542;SDS011;38449;52.696;6.186;2023-04-01T07:08:23;6.28;;;3.78;;
52542;SDS011;38449;52.696;6.186;2023-04-01T07:10:56;6.55;;;3.83;;
52542;SDS011;38449;52.696;6.186;2023-04-01T07:13:34;7.55;;;4.53;;
52542;SDS011;38449;52.696;6.186;2023-04-01T07:21:22;6.90;;;4.20;;
52542;SDS011;38449;52.696;6.186;2023-04-01T07:23:56;7.07;;;3.85;;
52542;SDS011;38449;52.696;6.186;2023-04-01T07:26:30;6.05;;;3.58;;
52542;SDS011;38449;52.696;6.186;2023-04-01T07:28:57;5.45;;;3.42;;
52542;SDS011;38449;52.696;6.186;2023-04-01T07:31:38;5.80;;;3.60;;
52542;SDS011;38449;52.696;6.186;2023-04-01T07:36:56;5.65;;;3.20;;
52542;SDS011;38449;52.696;6.186;2023-04-01T07:45:43;5.88;;;3.55;;
52542;SDS011;38449;52.696;6.186;2023-04-01T07:51:37;5.00;;;3.13;;
52542;SDS011;38449;52.696;6.186;2023-04-01T07:57:20;5.57;;;3.55;;
52542;SDS011;38449;52.696;6.186;2023-04-01T08:05:06;6.72;;;4.68;;
52542;SDS011;38449;52.696;6.186;2023-04-01T08:07:41;7.28;;;5.07;;
52542;SDS011;38449;52.696;6.186;2023-04-01T08:10:24;6.32;;;4.65;;
52542;SDS011;38449;52.696;6.186;2023-04-01T08:13:12;5.47;;;3.70;;
52542;SDS011;38449;52.696;6.186;2023-04-01T08:16:23;6.07;;;4.03;;
52542;SDS011;38449;52.696;6.186;2023-04-01T08:21:52;5.03;;;3.22;;
52542;SDS011;38449;52.696;6.186;2023-04-01T08:27:26;3.92;;;2.50;;
52542;SDS011;38449;52.696;6.186;2023-04-01T08:29:58;3.10;;;2.22;;
52542;SDS011;38449;52.696;6.186;2023-04-01T08:32:34;3.72;;;2.35;;
52542;SDS011;38449;52.696;6.186;2023-04-01T08:35:12;3.70;;;2.60;;
52542;SDS011;38449;52.696;6.186;2023-04-01T08:37:45;3.65;;;2.13;;
52542;SDS011;38449;52.696;6.186;2023-04-01T08:54:15;4.43;;;3.33;;
52542;SDS011;38449;52.696;6.186;2023-04-01T08:57:13;4.68;;;3.35;;
52542;SDS011;38449;52.696;6.186;2023-04-01T09:07:55;5.05;;;3.38;;
52542;SDS011;38449;52.696;6.186;2023-04-01T09:10:34;6.82;;;4.88;;
52542;SDS011;38449;52.696;6.186;2023-04-01T09:18:49;7.30;;;4.90;;
52542;SDS011;38449;52.696;6.186;2023-04-01T09:27:02;9.00;;;4.97;;
52542;SDS011;38449;52.696;6.186;2023-04-01T09:30:06;6.63;;;4.95;;
52542;SDS011;38449;52.696;6.186;2023-04-01T09:40:54;3.28;;;2.55;;
52542;SDS011;38449;52.696;6.186;2023-04-01T09:43:25;3.83;;;2.63;;
52542;SDS011;38449;52.696;6.186;2023-04-01T09:49:13;3.20;;;2.25;;
52542;SDS011;38449;52.696;6.186;2023-04-01T09:54:48;3.30;;;2.40;;
52542;SDS011;38449;52.696;6.186;2023-04-01T09:57:30;4.00;;;2.45;;
52542;SDS011;38449;52.696;6.186;2023-04-01T10:20:47;5.75;;;3.65;;
52542;SDS011;38449;52.696;6.186;2023-04-01T10:26:15;6.22;;;4.07;;
52542;SDS011;38449;52.696;6.186;2023-04-01T10:35:22;6.13;;;4.50;;
52542;SDS011;38449;52.696;6.186;2023-04-01T10:43:46;6.88;;;5.10;;
52542;SDS011;38449;52.696;6.186;2023-04-01T10:46:34;7.15;;;5.15;;
52542;SDS011;38449;52.696;6.186;2023-04-01T10:49:37;7.53;;;5.32;;
52542;SDS011;38449;52.696;6.186;2023-04-01T10:52:46;7.68;;;5.50;;
52542;SDS011;38449;52.696;6.186;2023-04-01T10:55:28;8.75;;;5.72;;
52542;SDS011;38449;52.696;6.186;2023-04-01T11:12:48;7.55;;;5.93;;
52542;SDS011;38449;52.696;6.186;2023-04-01T11:21:02;10.02;;;6.85;;
52542;SDS011;38449;52.696;6.186;2023-04-01T11:38:14;9.20;;;7.20;;
52542;SDS011;38449;52.696;6.186;2023-04-01T11:44:08;7.43;;;5.22;;
52542;SDS011;38449;52.696;6.186;2023-04-01T11:46:48;6.22;;;4.53;;
52542;SDS011;38449;52.696;6.186;2023-04-01T11:49:36;5.82;;;4.95;;
52542;SDS011;38449;52.696;6.186;2023-04-01T11:54:57;5.55;;;4.22;;
52542;SDS011;38449;52.696;6.186;2023-04-01T12:00:57;5.75;;;4.45;;
52542;SDS011;38449;52.696;6.186;2023-04-01T12:12:25;5.90;;;4.70;;
52542;SDS011;38449;52.696;6.186;2023-04-01T12:15:18;7.07;;;5.53;;
52542;SDS011;38449;52.696;6.186;2023-04-01T12:23:20;5.75;;;5.10;;
52542;SDS011;38449;52.696;6.186;2023-04-01T12:29:03;5.32;;;4.15;;
52542;SDS011;38449;52.696;6.186;2023-04-01T12:45:29;4.85;;;4.18;;
52542;SDS011;38449;52.696;6.186;2023-04-01T12:51:22;6.03;;;4.05;;
52542;SDS011;38449;52.696;6.186;2023-04-01T12:56:41;5.18;;;4.05;;
52542;SDS011;38449;52.696;6.186;2023-04-01T13:02:35;4.50;;;3.55;;
52542;SDS011;38449;52.696;6.186;2023-04-01T13:14:05;5.53;;;3.92;;
52542;SDS011;38449;52.696;6.186;2023-04-01T13:19:47;4.82;;;4.00;;
52542;SDS011;38449;52.696;6.186;2023-04-01T13:28:13;5.03;;;4.32;;
52542;SDS011;38449;52.696;6.186;2023-04-01T13:33:44;5.72;;;4.75;;
52542;SDS011;38449;52.696;6.186;2023-04-01T13:36:36;7.22;;;4.70;;
52542;SDS011;38449;52.696;6.186;2023-04-01T13:39:29;6.28;;;5.18;;
52542;SDS011;38449;52.696;6.186;2023-04-01T13:42:18;5.65;;;4.68;;
52542;SDS011;38449;52.696;6.186;2023-04-01T13:55:39;4.70;;;3.95;;
52542;SDS011;38449;52.696;6.186;2023-04-01T14:09:45;3.70;;;3.30;;
52542;SDS011;38449;52.696;6.186;2023-04-01T14:12:28;3.75;;;3.20;;
52542;SDS011;38449;52.696;6.186;2023-04-01T14:18:10;4.82;;;3.97;;
52542;SDS011;38449;52.696;6.186;2023-04-01T14:20:51;4.13;;;3.70;;
52542;SDS011;38449;52.696;6.186;2023-04-01T14:23:52;5.20;;;4.00;;
52542;SDS011;38449;52.696;6.186;2023-04-01T14:29:37;4.20;;;3.80;;
52542;SDS011;38449;52.696;6.186;2023-04-01T14:40:33;3.38;;;2.85;;
52542;SDS011;38449;52.696;6.186;2023-04-01T14:43:22;3.80;;;3.40;;
52542;SDS011;38449;52.696;6.186;2023-04-01T14:51:49;4.05;;;3.13;;
52542;SDS011;38449;52.696;6.186;2023-04-01T14:54:32;4.05;;;3.10;;
52542;SDS011;38449;52.696;6.186;2023-04-01T14:59:48;3.17;;;2.50;;
52542;SDS011;38449;52.696;6.186;2023-04-01T15:05:31;3.25;;;2.90;;
52542;SDS011;38449;52.696;6.186;2023-04-01T15:08:06;3.13;;;2.47;;
52542;SDS011;38449;52.696;6.186;2023-04-01T15:11:13;4.28;;;3.00;;
52542;SDS011;38449;52.696;6.186;2023-04-01T15:13:45;3.20;;;2.90;;
52542;SDS011;38449;52.696;6.186;2023-04-01T15:22:53;4.35;;;2.53;;
52542;SDS011;38449;52.696;6.186;2023-04-01T15:28:16;2.70;;;2.33;;
52542;SDS011;38449;52.696;6.186;2023-04-01T15:30:53;3.30;;;2.55;;
52542;SDS011;38449;52.696;6.186;2023-04-01T15:36:38;3.13;;;2.40;;
52542;SDS011;38449;52.696;6.186;2023-04-01T15:39:13;2.88;;;2.42;;
52542;SDS011;38449;52.696;6.186;2023-04-01T15:44:37;4.40;;;2.35;;
52542;SDS011;38449;52.696;6.186;2023-04-01T15:49:59;2.97;;;2.67;;
52542;SDS011;38449;52.696;6.186;2023-04-01T16:00:53;4.53;;;3.03;;
52542;SDS011;38449;52.696;6.186;2023-04-01T16:03:50;3.25;;;2.85;;
52542;SDS011;38449;52.696;6.186;2023-04-01T16:06:35;3.03;;;2.72;;
52542;SDS011;38449;52.696;6.186;2023-04-01T16:09:42;3.50;;;3.20;;
52542;SDS011;38449;52.696;6.186;2023-04-01T16:12:34;3.28;;;2.88;;
52542;SDS011;38449;52.696;6.186;2023-04-01T16:17:49;5.20;;;3.08;;
52542;SDS011;38449;52.696;6.186;2023-04-01T16:20:25;3.42;;;3.00;;
52542;SDS011;38449;52.696;6.186;2023-04-01T16:23:11;3.65;;;3.13;;
52542;SDS011;38449;52.696;6.186;2023-04-01T16:25:39;3.95;;;3.50;;
52542;SDS011;38449;52.696;6.186;2023-04-01T16:34:04;3.40;;;3.10;;
52542;SDS011;38449;52.696;6.186;2023-04-01T16:36:45;3.58;;;2.92;;
52542;SDS011;38449;52.696;6.186;2023-04-01T16:47:23;4.15;;;3.00;;
52542;SDS011;38449;52.696;6.186;2023-04-01T16:52:58;3.40;;;3.10;;
52542;SDS011;38449;52.696;6.186;2023-04-01T16:55:50;3.67;;;3.05;;
52542;SDS011;38449;52.696;6.186;2023-04-01T16:58:27;3.53;;;2.95;;
52542;SDS011;38449;52.696;6.186;2023-04-01T17:01:02;3.58;;;2.90;;
52542;SDS011;38449;52.696;6.186;2023-04-01T17:03:38;3.78;;;2.55;;
52542;SDS011;38449;52.696;6.186;2023-04-01T17:12:04;3.03;;;2.70;;
52542;SDS011;38449;52.696;6.186;2023-04-01T17:20:54;4.30;;;3.55;;
52542;SDS011;38449;52.696;6.186;2023-04-01T17:23:34;4.45;;;4.03;;
52542;SDS011;38449;52.696;6.186;2023-04-01T17:29:06;5.10;;;4.38;;
52542;SDS011;38449;52.696;6.186;2023-04-01T17:34:33;6.15;;;4.53;;
52542;SDS011;38449;52.696;6.186;2023-04-01T17:40:21;5.75;;;5.25;;
52542;SDS011;38449;52.696;6.186;2023-04-01T17:45:42;6.15;;;5.63;;
52542;SDS011;38449;52.696;6.186;2023-04-01T17:51:03;5.45;;;4.95;;
52542;SDS011;38449;52.696;6.186;2023-04-01T17:54:15;5.75;;;4.47;;
52542;SDS011;38449;52.696;6.186;2023-04-01T18:02:42;6.20;;;5.60;;
52542;SDS011;38449;52.696;6.186;2023-04-01T18:05:24;5.53;;;5.00;;
52542;SDS011;38449;52.696;6.186;2023-04-01T18:10:55;6.07;;;4.97;;
52542;SDS011;38449;52.696;6.186;2023-04-01T18:19:08;7.47;;;6.20;;
52542;SDS011;38449;52.696;6.186;2023-04-01T18:21:50;7.30;;;6.00;;
52542;SDS011;38449;52.696;6.186;2023-04-01T18:24:28;6.90;;;6.03;;
52542;SDS011;38449;52.696;6.186;2023-04-01T18:27:16;7.38;;;6.35;;
52542;SDS011;38449;52.696;6.186;2023-04-01T18:29:56;8.07;;;6.57;;
52542;SDS011;38449;52.696;6.186;2023-04-01T18:32:55;6.43;;;5.25;;
52542;SDS011;38449;52.696;6.186;2023-04-01T18:38:32;5.80;;;4.78;;
52542;SDS011;38449;52.696;6.186;2023-04-01T18:51:51;9.40;;;6.72;;
52542;SDS011;38449;52.696;6.186;2023-04-01T18:54:24;6.32;;;5.20;;
52542;SDS011;38449;52.696;6.186;2023-04-01T18:57:02;6.43;;;5.72;;
52542;SDS011;38449;52.696;6.186;2023-04-01T18:59:40;7.00;;;5.30;;
52542;SDS011;38449;52.696;6.186;2023-04-01T19:07:52;7.20;;;5.45;;
52542;SDS011;38449;52.696;6.186;2023-04-01T19:21:37;6.78;;;5.28;;
52542;SDS011;38449;52.696;6.186;2023-04-01T19:24:34;6.65;;;5.25;;
52542;SDS011;38449;52.696;6.186;2023-04-01T19:38:19;7.55;;;6.28;;
52542;SDS011;38449;52.696;6.186;2023-04-01T19:40:57;8.98;;;6.15;;
52542;SDS011;38449;52.696;6.186;2023-04-01T19:43:44;7.50;;;6.47;;
52542;SDS011;38449;52.696;6.186;2023-04-01T19:46:18;8.63;;;6.80;;
52542;SDS011;38449;52.696;6.186;2023-04-01T19:49:09;8.10;;;6.32;;
52542;SDS011;38449;52.696;6.186;2023-04-01T19:51:48;7.63;;;6.13;;
52542;SDS011;38449;52.696;6.186;2023-04-01T19:57:00;9.30;;;6.43;;
52542;SDS011;38449;52.696;6.186;2023-04-01T19:59:57;8.18;;;6.93;;
52542;SDS011;38449;52.696;6.186;2023-04-01T20:05:32;8.23;;;6.40;;
52542;SDS011;38449;52.696;6.186;2023-04-01T20:17:01;10.00;;;6.72;;
52542;SDS011;38449;52.696;6.186;2023-04-01T20:25:31;10.65;;;8.13;;
52542;SDS011;38449;52.696;6.186;2023-04-01T20:28:09;10.95;;;7.30;;
52542;SDS011;38449;52.696;6.186;2023-04-01T20:30:53;10.68;;;7.18;;
52542;SDS011;38449;52.696;6.186;2023-04-01T20:47:50;10.93;;;8.02;;
52542;SDS011;38449;52.696;6.186;2023-04-01T20:50:57;9.20;;;7.22;;
52542;SDS011;38449;52.696;6.186;2023-04-01T20:53:57;11.68;;;8.27;;
52542;SDS011;38449;52.696;6.186;2023-04-01T20:57:05;11.77;;;7.35;;
52542;SDS011;38449;52.696;6.186;2023-04-01T21:07:52;8.73;;;7.15;;
52542;SDS011;38449;52.696;6.186;2023-04-01T21:10:41;10.20;;;8.00;;
52542;SDS011;38449;52.696;6.186;2023-04-01T21:40:09;12.00;;;9.32;;
52542;SDS011;38449;52.696;6.186;2023-04-01T21:48:15;9.82;;;8.27;;
52542;SDS011;38449;52.696;6.186;2023-04-01T21:51:08;11.52;;;8.05;;
52542;SDS011;38449;52.696;6.186;2023-04-01T21:57:11;12.85;;;8.73;;
52542;SDS011;38449;52.696;6.186;2023-04-01T22:02:49;11.15;;;7.97;;
52542;SDS011;38449;52.696;6.186;2023-04-01T22:13:46;10.50;;;7.93;;
52542;SDS011;38449;52.696;6.186;2023-04-01T22:17:25;10.63;;;8.38;;
52542;SDS011;38449;52.696;6.186;2023-04-01T22:27:37;11.30;;;8.40;;
52542;SDS011;38449;52.696;6.186;2023-04-01T22:30:41;12.70;;;7.78;;
52542;SDS011;38449;52.696;6.186;2023-04-01T22:33:14;11.25;;;7.88;;
52542;SDS011;38449;52.696;6.186;2023-04-01T22:38:58;12.77;;;8.30;;
52542;SDS011;38449;52.696;6.186;2023-04-01T22:50:28;10.05;;;7.75;;
52542;SDS011;38449;52.696;6.186;2023-04-01T22:53:23;11.45;;;7.47;;
52542;SDS011;38449;52.696;6.186;2023-04-01T22:56:15;10.05;;;6.63;;
52542;SDS011;38449;52.696;6.186;2023-04-01T22:58:54;11.20;;;9.00;;
52542;SDS011;38449;52.696;6.186;2023-04-01T23:01:29;9.85;;;8.02;;
52542;SDS011;38449;52.696;6.186;2023-04-01T23:03:59;13.68;;;7.22;;
52542;SDS011;38449;52.696;6.186;2023-04-01T23:06:37;11.25;;;7.78;;
52542;SDS011;38449;52.696;6.186;2023-04-01T23:09:16;13.55;;;8.02;;
52542;SDS011;38449;52.696;6.186;2023-04-01T23:11:48;13.40;;;8.93;;
52542;SDS011;38449;52.696;6.186;2023-04-01T23:14:30;12.25;;;8.63;;
52542;SDS011;38449;52.696;6.186;2023-04-01T23:17:16;9.65;;;7.57;;
52542;SDS011;38449;52.696;6.186;2023-04-01T23:25:56;10.73;;;7.30;;
52542;SDS011;38449;52.696;6.186;2023-04-01T23:28:32;12.93;;;8.82;;
52542;SDS011;38449;52.696;6.186;2023-04-01T23:31:30;7.90;;;6.57;;
52542;SDS011;38449;52.696;6.186;2023-04-01T23:34:19;9.73;;;7.85;;
52542;SDS011;38449;52.696;6.186;2023-04-01T23:36:50;12.23;;;7.75;;
52542;SDS011;38449;52.696;6.186;2023-04-01T23:39:32;10.30;;;7.32;;
52542;SDS011;38449;52.696;6.186;2023-04-01T23:42:03;10.82;;;7.65;;
52542;SDS011;38449;52.696;6.186;2023-04-01T23:44:32;11.00;;;7.28;;
52542;SDS011;38449;52.696;6.186;2023-04-01T23:47:01;10.38;;;7.28;;
52542;SDS011;38449;52.696;6.186;2023-04-01T23:49:33;11.48;;;6.68;;
52542;SDS011;38449;52.696;6.186;2023-04-01T23:52:10;10.27;;;6.50;;
52542;SDS011;38449;52.696;6.186;2023-04-01T23:57:25;9.13;;;6.80;;
